sensor_id;sensor_type;location;lat;lon;timestamp;P1;durP1;ratioP1;P2;durP2;ratioP2
76373;SDS011;65197;50.164;8.012;2023-02-01T00:01:48;16.10;;;8.55;;
76373;SDS011;65197;50.164;8.012;2023-02-01T00:04:13;17.48;;;8.27;;
76373;SDS011;65197;50.164;8.012;2023-02-01T00:06:38;18.80;;;9.55;;
76373;SDS011;65197;50.164;8.012;2023-02-01T00:09:04;15.73;;;8.43;;
76373;SDS011;65197;50.164;8.012;2023-02-01T00:11:29;18.85;;;9.13;;
76373;SDS011;65197;50.164;8.012;2023-02-01T00:13:55;20.05;;;8.77;;
76373;SDS011;65197;50.164;8.012;2023-02-01T00:16:22;15.98;;;8.48;;
76373;SDS011;65197;50.164;8.012;2023-02-01T00:18:49;16.88;;;9.23;;
76373;SDS011;65197;50.164;8.012;2023-02-01T00:21:17;16.50;;;7.25;;
76373;SDS011;65197;50.164;8.012;2023-02-01T00:23:44;18.20;;;7.20;;
76373;SDS011;65197;50.164;8.012;2023-02-01T00:26:12;15.57;;;7.28;;
76373;SDS011;65197;50.164;8.012;2023-02-01T00:28:40;15.57;;;7.57;;
76373;SDS011;65197;50.164;8.012;2023-02-01T00:31:05;15.27;;;8.57;;
76373;SDS011;65197;50.164;8.012;2023-02-01T00:33:31;15.73;;;7.88;;
76373;SDS011;65197;50.164;8.012;2023-02-01T00:35:58;16.48;;;8.10;;
76373;SDS011;65197;50.164;8.012;2023-02-01T00:38:24;18.50;;;8.45;;
76373;SDS011;65197;50.164;8.012;2023-02-01T00:40:51;17.70;;;8.07;;
76373;SDS011;65197;50.164;8.012;2023-02-01T00:43:16;18.30;;;7.80;;
76373;SDS011;65197;50.164;8.012;2023-02-01T00:45:41;19.50;;;8.95;;
76373;SDS011;65197;50.164;8.012;2023-02-01T00:48:07;22.33;;;10.15;;
76373;SDS011;65197;50.164;8.012;2023-02-01T00:50:32;24.23;;;10.98;;
76373;SDS011;65197;50.164;8.012;2023-02-01T00:52:58;28.23;;;11.20;;
76373;SDS011;65197;50.164;8.012;2023-02-01T00:55:23;22.38;;;10.25;;
76373;SDS011;65197;50.164;8.012;2023-02-01T00:57:49;22.00;;;10.93;;
76373;SDS011;65197;50.164;8.012;2023-02-01T01:00:14;22.73;;;11.90;;
76373;SDS011;65197;50.164;8.012;2023-02-01T01:02:43;25.33;;;11.10;;
76373;SDS011;65197;50.164;8.012;2023-02-01T01:05:09;22.15;;;10.30;;
76373;SDS011;65197;50.164;8.012;2023-02-01T01:07:34;22.35;;;11.02;;
76373;SDS011;65197;50.164;8.012;2023-02-01T01:10:00;23.25;;;10.63;;
76373;SDS011;65197;50.164;8.012;2023-02-01T01:12:25;26.10;;;11.30;;
76373;SDS011;65197;50.164;8.012;2023-02-01T01:14:50;23.85;;;11.43;;
76373;SDS011;65197;50.164;8.012;2023-02-01T01:17:16;20.65;;;10.38;;
76373;SDS011;65197;50.164;8.012;2023-02-01T01:19:41;24.48;;;11.38;;
76373;SDS011;65197;50.164;8.012;2023-02-01T01:22:06;23.25;;;10.70;;
76373;SDS011;65197;50.164;8.012;2023-02-01T01:24:32;23.05;;;10.43;;
76373;SDS011;65197;50.164;8.012;2023-02-01T01:26:57;25.38;;;10.50;;
76373;SDS011;65197;50.164;8.012;2023-02-01T01:29:23;20.95;;;10.73;;
76373;SDS011;65197;50.164;8.012;2023-02-01T01:31:48;21.23;;;10.60;;
76373;SDS011;65197;50.164;8.012;2023-02-01T01:34:14;22.50;;;10.52;;
76373;SDS011;65197;50.164;8.012;2023-02-01T01:36:39;22.10;;;10.82;;
76373;SDS011;65197;50.164;8.012;2023-02-01T01:39:04;18.25;;;9.40;;
76373;SDS011;65197;50.164;8.012;2023-02-01T01:41:30;18.48;;;9.38;;
76373;SDS011;65197;50.164;8.012;2023-02-01T01:43:58;17.35;;;8.73;;
76373;SDS011;65197;50.164;8.012;2023-02-01T01:46:28;16.67;;;8.27;;
76373;SDS011;65197;50.164;8.012;2023-02-01T01:49:06;16.63;;;8.43;;
76373;SDS011;65197;50.164;8.012;2023-02-01T01:51:36;16.90;;;8.20;;
76373;SDS011;65197;50.164;8.012;2023-02-01T01:54:11;17.38;;;7.78;;
76373;SDS011;65197;50.164;8.012;2023-02-01T01:56:42;14.02;;;6.95;;
76373;SDS011;65197;50.164;8.012;2023-02-01T01:59:09;17.20;;;7.30;;
76373;SDS011;65197;50.164;8.012;2023-02-01T02:01:35;15.40;;;6.63;;
76373;SDS011;65197;50.164;8.012;2023-02-01T02:04:00;15.73;;;6.22;;
76373;SDS011;65197;50.164;8.012;2023-02-01T02:06:30;17.80;;;7.20;;
76373;SDS011;65197;50.164;8.012;2023-02-01T02:09:12;18.20;;;7.13;;
76373;SDS011;65197;50.164;8.012;2023-02-01T02:11:38;14.93;;;6.93;;
76373;SDS011;65197;50.164;8.012;2023-02-01T02:14:05;13.30;;;5.85;;
76373;SDS011;65197;50.164;8.012;2023-02-01T02:19:10;12.95;;;5.82;;
76373;SDS011;65197;50.164;8.012;2023-02-01T02:24:50;19.08;;;6.53;;
76373;SDS011;65197;50.164;8.012;2023-02-01T02:35:59;14.20;;;6.25;;
76373;SDS011;65197;50.164;8.012;2023-02-01T02:38:33;10.95;;;5.32;;
76373;SDS011;65197;50.164;8.012;2023-02-01T02:53:21;14.07;;;5.78;;
76373;SDS011;65197;50.164;8.012;2023-02-01T02:56:10;12.70;;;5.00;;
76373;SDS011;65197;50.164;8.012;2023-02-01T02:58:55;13.90;;;6.38;;
76373;SDS011;65197;50.164;8.012;2023-02-01T03:01:41;14.90;;;5.97;;
76373;SDS011;65197;50.164;8.012;2023-02-01T03:11:09;12.77;;;5.30;;
76373;SDS011;65197;50.164;8.012;2023-02-01T03:13:54;11.30;;;6.18;;
76373;SDS011;65197;50.164;8.012;2023-02-01T03:16:24;12.73;;;6.30;;
76373;SDS011;65197;50.164;8.012;2023-02-01T03:19:14;15.45;;;6.05;;
76373;SDS011;65197;50.164;8.012;2023-02-01T03:21:48;14.95;;;5.57;;
76373;SDS011;65197;50.164;8.012;2023-02-01T03:26:58;12.70;;;5.45;;
76373;SDS011;65197;50.164;8.012;2023-02-01T03:29:39;12.73;;;6.13;;
76373;SDS011;65197;50.164;8.012;2023-02-01T03:32:10;18.67;;;6.93;;
76373;SDS011;65197;50.164;8.012;2023-02-01T03:34:36;13.75;;;6.15;;
76373;SDS011;65197;50.164;8.012;2023-02-01T03:37:02;16.08;;;6.72;;
76373;SDS011;65197;50.164;8.012;2023-02-01T03:39:36;14.00;;;6.30;;
76373;SDS011;65197;50.164;8.012;2023-02-01T03:42:11;10.88;;;5.68;;
76373;SDS011;65197;50.164;8.012;2023-02-01T03:44:47;15.52;;;5.80;;
76373;SDS011;65197;50.164;8.012;2023-02-01T03:47:27;17.90;;;6.80;;
76373;SDS011;65197;50.164;8.012;2023-02-01T03:49:57;20.02;;;8.80;;
76373;SDS011;65197;50.164;8.012;2023-02-01T03:52:27;15.75;;;6.97;;
76373;SDS011;65197;50.164;8.012;2023-02-01T03:54:55;15.52;;;6.88;;
76373;SDS011;65197;50.164;8.012;2023-02-01T03:57:23;17.38;;;7.03;;
76373;SDS011;65197;50.164;8.012;2023-02-01T03:59:54;17.60;;;8.40;;
76373;SDS011;65197;50.164;8.012;2023-02-01T04:02:30;16.42;;;7.68;;
76373;SDS011;65197;50.164;8.012;2023-02-01T04:04:55;15.13;;;6.80;;
76373;SDS011;65197;50.164;8.012;2023-02-01T04:07:20;15.65;;;7.40;;
76373;SDS011;65197;50.164;8.012;2023-02-01T04:09:46;18.33;;;7.20;;
76373;SDS011;65197;50.164;8.012;2023-02-01T04:12:11;11.88;;;5.70;;
76373;SDS011;65197;50.164;8.012;2023-02-01T04:14:36;16.50;;;6.70;;
76373;SDS011;65197;50.164;8.012;2023-02-01T04:17:02;12.10;;;6.28;;
76373;SDS011;65197;50.164;8.012;2023-02-01T04:19:28;14.23;;;5.95;;
76373;SDS011;65197;50.164;8.012;2023-02-01T04:21:53;13.57;;;5.38;;
76373;SDS011;65197;50.164;8.012;2023-02-01T04:24:18;13.55;;;5.28;;
76373;SDS011;65197;50.164;8.012;2023-02-01T04:26:44;18.67;;;6.05;;
76373;SDS011;65197;50.164;8.012;2023-02-01T04:29:09;14.45;;;5.20;;
76373;SDS011;65197;50.164;8.012;2023-02-01T04:31:35;16.13;;;6.07;;
76373;SDS011;65197;50.164;8.012;2023-02-01T04:34:01;13.65;;;5.30;;
76373;SDS011;65197;50.164;8.012;2023-02-01T04:36:26;15.70;;;6.13;;
76373;SDS011;65197;50.164;8.012;2023-02-01T04:38:52;14.60;;;5.65;;
76373;SDS011;65197;50.164;8.012;2023-02-01T04:41:18;13.30;;;5.32;;
76373;SDS011;65197;50.164;8.012;2023-02-01T04:43:47;11.43;;;5.18;;
76373;SDS011;65197;50.164;8.012;2023-02-01T04:48:38;14.98;;;6.07;;
76373;SDS011;65197;50.164;8.012;2023-02-01T04:51:04;18.80;;;6.25;;
76373;SDS011;65197;50.164;8.012;2023-02-01T04:53:29;18.65;;;5.78;;
76373;SDS011;65197;50.164;8.012;2023-02-01T04:55:54;19.85;;;5.70;;
76373;SDS011;65197;50.164;8.012;2023-02-01T04:58:20;19.42;;;5.13;;
76373;SDS011;65197;50.164;8.012;2023-02-01T05:00:45;19.70;;;6.43;;
76373;SDS011;65197;50.164;8.012;2023-02-01T05:03:11;13.70;;;6.00;;
76373;SDS011;65197;50.164;8.012;2023-02-01T05:05:36;16.40;;;5.85;;
76373;SDS011;65197;50.164;8.012;2023-02-01T05:08:02;15.23;;;5.70;;
76373;SDS011;65197;50.164;8.012;2023-02-01T05:10:27;12.38;;;6.05;;
76373;SDS011;65197;50.164;8.012;2023-02-01T05:12:53;19.48;;;5.30;;
76373;SDS011;65197;50.164;8.012;2023-02-01T05:15:37;17.80;;;5.88;;
76373;SDS011;65197;50.164;8.012;2023-02-01T05:18:02;10.20;;;5.10;;
76373;SDS011;65197;50.164;8.012;2023-02-01T05:20:28;21.75;;;6.93;;
76373;SDS011;65197;50.164;8.012;2023-02-01T05:22:53;16.15;;;5.93;;
76373;SDS011;65197;50.164;8.012;2023-02-01T05:25:18;15.02;;;5.63;;
76373;SDS011;65197;50.164;8.012;2023-02-01T05:27:44;12.95;;;5.30;;
76373;SDS011;65197;50.164;8.012;2023-02-01T05:30:09;14.65;;;5.60;;
76373;SDS011;65197;50.164;8.012;2023-02-01T05:32:35;23.90;;;7.38;;
76373;SDS011;65197;50.164;8.012;2023-02-01T05:35:00;16.45;;;6.25;;
76373;SDS011;65197;50.164;8.012;2023-02-01T05:37:26;18.75;;;6.20;;
76373;SDS011;65197;50.164;8.012;2023-02-01T05:39:52;19.67;;;6.70;;
76373;SDS011;65197;50.164;8.012;2023-02-01T05:42:17;15.48;;;5.78;;
76373;SDS011;65197;50.164;8.012;2023-02-01T05:44:42;19.13;;;6.97;;
76373;SDS011;65197;50.164;8.012;2023-02-01T05:47:08;15.05;;;6.28;;
76373;SDS011;65197;50.164;8.012;2023-02-01T05:49:33;22.98;;;6.65;;
76373;SDS011;65197;50.164;8.012;2023-02-01T05:51:59;18.38;;;7.00;;
76373;SDS011;65197;50.164;8.012;2023-02-01T05:54:24;20.00;;;6.47;;
76373;SDS011;65197;50.164;8.012;2023-02-01T05:56:49;18.88;;;6.50;;
76373;SDS011;65197;50.164;8.012;2023-02-01T05:59:15;15.95;;;7.00;;
76373;SDS011;65197;50.164;8.012;2023-02-01T06:01:40;14.80;;;6.90;;
76373;SDS011;65197;50.164;8.012;2023-02-01T06:04:06;23.63;;;7.70;;
76373;SDS011;65197;50.164;8.012;2023-02-01T06:06:31;16.30;;;6.45;;
76373;SDS011;65197;50.164;8.012;2023-02-01T06:08:56;24.23;;;6.45;;
76373;SDS011;65197;50.164;8.012;2023-02-01T06:11:22;16.17;;;6.65;;
76373;SDS011;65197;50.164;8.012;2023-02-01T06:13:48;22.48;;;5.93;;
76373;SDS011;65197;50.164;8.012;2023-02-01T06:16:14;15.65;;;6.00;;
76373;SDS011;65197;50.164;8.012;2023-02-01T06:18:40;19.60;;;6.72;;
76373;SDS011;65197;50.164;8.012;2023-02-01T06:21:06;16.85;;;5.30;;
76373;SDS011;65197;50.164;8.012;2023-02-01T06:23:32;15.88;;;5.28;;
76373;SDS011;65197;50.164;8.012;2023-02-01T06:25:58;15.43;;;5.53;;
76373;SDS011;65197;50.164;8.012;2023-02-01T06:28:25;12.13;;;5.25;;
76373;SDS011;65197;50.164;8.012;2023-02-01T06:30:52;13.38;;;5.18;;
76373;SDS011;65197;50.164;8.012;2023-02-01T06:33:17;15.27;;;5.85;;
76373;SDS011;65197;50.164;8.012;2023-02-01T06:35:43;15.52;;;5.75;;
76373;SDS011;65197;50.164;8.012;2023-02-01T06:38:09;17.92;;;5.35;;
76373;SDS011;65197;50.164;8.012;2023-02-01T06:40:36;13.90;;;5.82;;
76373;SDS011;65197;50.164;8.012;2023-02-01T06:43:02;13.07;;;5.35;;
76373;SDS011;65197;50.164;8.012;2023-02-01T06:45:27;12.02;;;4.93;;
76373;SDS011;65197;50.164;8.012;2023-02-01T06:47:52;13.00;;;5.40;;
76373;SDS011;65197;50.164;8.012;2023-02-01T06:50:18;16.40;;;4.63;;
76373;SDS011;65197;50.164;8.012;2023-02-01T06:52:43;11.85;;;5.63;;
76373;SDS011;65197;50.164;8.012;2023-02-01T06:55:09;14.15;;;5.15;;
76373;SDS011;65197;50.164;8.012;2023-02-01T06:57:34;14.43;;;5.07;;
76373;SDS011;65197;50.164;8.012;2023-02-01T07:00:01;11.93;;;4.90;;
76373;SDS011;65197;50.164;8.012;2023-02-01T07:02:28;12.68;;;5.50;;
76373;SDS011;65197;50.164;8.012;2023-02-01T07:04:53;14.48;;;3.58;;
76373;SDS011;65197;50.164;8.012;2023-02-01T07:07:18;12.90;;;4.13;;
76373;SDS011;65197;50.164;8.012;2023-02-01T07:09:44;14.93;;;4.57;;
76373;SDS011;65197;50.164;8.012;2023-02-01T07:12:10;11.88;;;4.55;;
76373;SDS011;65197;50.164;8.012;2023-02-01T07:14:35;18.13;;;5.32;;
76373;SDS011;65197;50.164;8.012;2023-02-01T07:17:01;13.70;;;5.53;;
76373;SDS011;65197;50.164;8.012;2023-02-01T07:19:26;16.25;;;5.32;;
76373;SDS011;65197;50.164;8.012;2023-02-01T07:21:52;10.65;;;5.13;;
76373;SDS011;65197;50.164;8.012;2023-02-01T07:24:17;16.23;;;4.90;;
76373;SDS011;65197;50.164;8.012;2023-02-01T07:26:42;12.23;;;5.47;;
76373;SDS011;65197;50.164;8.012;2023-02-01T07:29:08;17.98;;;4.75;;
76373;SDS011;65197;50.164;8.012;2023-02-01T07:31:33;11.00;;;5.00;;
76373;SDS011;65197;50.164;8.012;2023-02-01T07:33:58;12.55;;;4.60;;
76373;SDS011;65197;50.164;8.012;2023-02-01T07:36:25;18.88;;;5.10;;
76373;SDS011;65197;50.164;8.012;2023-02-01T07:38:50;14.45;;;4.38;;
76373;SDS011;65197;50.164;8.012;2023-02-01T07:41:17;9.73;;;4.85;;
76373;SDS011;65197;50.164;8.012;2023-02-01T07:43:42;10.70;;;3.97;;
76373;SDS011;65197;50.164;8.012;2023-02-01T07:46:09;12.48;;;4.55;;
76373;SDS011;65197;50.164;8.012;2023-02-01T07:48:35;9.90;;;3.35;;
76373;SDS011;65197;50.164;8.012;2023-02-01T07:51:02;8.88;;;3.95;;
76373;SDS011;65197;50.164;8.012;2023-02-01T07:53:28;8.85;;;3.33;;
76373;SDS011;65197;50.164;8.012;2023-02-01T07:55:55;14.18;;;4.22;;
76373;SDS011;65197;50.164;8.012;2023-02-01T07:58:21;12.98;;;4.18;;
76373;SDS011;65197;50.164;8.012;2023-02-01T08:00:50;9.63;;;3.70;;
76373;SDS011;65197;50.164;8.012;2023-02-01T08:03:34;11.23;;;3.90;;
76373;SDS011;65197;50.164;8.012;2023-02-01T08:05:59;11.85;;;4.15;;
76373;SDS011;65197;50.164;8.012;2023-02-01T08:08:24;12.20;;;5.15;;
76373;SDS011;65197;50.164;8.012;2023-02-01T08:10:50;7.80;;;3.10;;
76373;SDS011;65197;50.164;8.012;2023-02-01T08:13:16;9.75;;;3.20;;
76373;SDS011;65197;50.164;8.012;2023-02-01T08:15:41;7.75;;;3.67;;
76373;SDS011;65197;50.164;8.012;2023-02-01T08:18:07;11.82;;;3.97;;
76373;SDS011;65197;50.164;8.012;2023-02-01T08:20:34;10.98;;;4.05;;
76373;SDS011;65197;50.164;8.012;2023-02-01T08:23:01;13.43;;;3.95;;
76373;SDS011;65197;50.164;8.012;2023-02-01T08:25:26;9.75;;;3.88;;
76373;SDS011;65197;50.164;8.012;2023-02-01T08:27:52;10.95;;;3.42;;
76373;SDS011;65197;50.164;8.012;2023-02-01T08:30:19;7.95;;;3.80;;
76373;SDS011;65197;50.164;8.012;2023-02-01T08:32:45;10.05;;;3.83;;
76373;SDS011;65197;50.164;8.012;2023-02-01T08:35:10;9.82;;;3.42;;
76373;SDS011;65197;50.164;8.012;2023-02-01T08:37:36;9.95;;;3.90;;
76373;SDS011;65197;50.164;8.012;2023-02-01T08:40:01;11.98;;;3.97;;
76373;SDS011;65197;50.164;8.012;2023-02-01T08:42:27;10.40;;;3.45;;
76373;SDS011;65197;50.164;8.012;2023-02-01T08:45:12;7.72;;;4.10;;
76373;SDS011;65197;50.164;8.012;2023-02-01T08:47:37;12.40;;;3.67;;
76373;SDS011;65197;50.164;8.012;2023-02-01T08:50:03;8.57;;;4.30;;
76373;SDS011;65197;50.164;8.012;2023-02-01T08:52:28;9.07;;;3.53;;
76373;SDS011;65197;50.164;8.012;2023-02-01T08:54:54;12.23;;;4.15;;
76373;SDS011;65197;50.164;8.012;2023-02-01T08:57:19;13.43;;;4.03;;
76373;SDS011;65197;50.164;8.012;2023-02-01T08:59:45;10.27;;;3.97;;
76373;SDS011;65197;50.164;8.012;2023-02-01T09:02:14;11.27;;;4.75;;
76373;SDS011;65197;50.164;8.012;2023-02-01T09:04:40;9.70;;;3.85;;
76373;SDS011;65197;50.164;8.012;2023-02-01T09:07:07;13.57;;;4.80;;
76373;SDS011;65197;50.164;8.012;2023-02-01T09:09:33;8.52;;;3.70;;
76373;SDS011;65197;50.164;8.012;2023-02-01T09:11:58;11.43;;;3.83;;
76373;SDS011;65197;50.164;8.012;2023-02-01T09:14:24;8.43;;;3.92;;
76373;SDS011;65197;50.164;8.012;2023-02-01T09:16:49;10.20;;;3.60;;
76373;SDS011;65197;50.164;8.012;2023-02-01T09:19:14;12.60;;;5.50;;
76373;SDS011;65197;50.164;8.012;2023-02-01T09:21:40;9.13;;;3.83;;
76373;SDS011;65197;50.164;8.012;2023-02-01T09:24:05;13.05;;;3.80;;
76373;SDS011;65197;50.164;8.012;2023-02-01T09:26:32;6.20;;;3.55;;
76373;SDS011;65197;50.164;8.012;2023-02-01T09:28:58;10.80;;;3.47;;
76373;SDS011;65197;50.164;8.012;2023-02-01T09:31:24;7.88;;;3.60;;
76373;SDS011;65197;50.164;8.012;2023-02-01T09:33:50;10.95;;;4.05;;
76373;SDS011;65197;50.164;8.012;2023-02-01T09:36:15;10.75;;;3.88;;
76373;SDS011;65197;50.164;8.012;2023-02-01T09:38:40;9.73;;;3.67;;
76373;SDS011;65197;50.164;8.012;2023-02-01T09:46:46;10.35;;;3.75;;
76373;SDS011;65197;50.164;8.012;2023-02-01T09:49:13;8.35;;;3.60;;
76373;SDS011;65197;50.164;8.012;2023-02-01T09:51:44;11.63;;;3.45;;
76373;SDS011;65197;50.164;8.012;2023-02-01T09:54:13;6.07;;;3.72;;
76373;SDS011;65197;50.164;8.012;2023-02-01T09:56:49;9.40;;;3.70;;
76373;SDS011;65197;50.164;8.012;2023-02-01T10:01:51;15.70;;;3.58;;
76373;SDS011;65197;50.164;8.012;2023-02-01T10:04:17;9.18;;;3.80;;
76373;SDS011;65197;50.164;8.012;2023-02-01T10:09:49;8.25;;;3.10;;
76373;SDS011;65197;50.164;8.012;2023-02-01T10:12:28;8.25;;;3.65;;
76373;SDS011;65197;50.164;8.012;2023-02-01T10:15:13;10.30;;;3.55;;
76373;SDS011;65197;50.164;8.012;2023-02-01T10:22:44;11.63;;;3.10;;
76373;SDS011;65197;50.164;8.012;2023-02-01T10:25:37;14.40;;;3.10;;
76373;SDS011;65197;50.164;8.012;2023-02-01T10:28:15;11.38;;;3.33;;
76373;SDS011;65197;50.164;8.012;2023-02-01T10:30:44;10.25;;;3.33;;
76373;SDS011;65197;50.164;8.012;2023-02-01T10:36:28;14.13;;;4.13;;
76373;SDS011;65197;50.164;8.012;2023-02-01T10:39:00;9.52;;;3.15;;
76373;SDS011;65197;50.164;8.012;2023-02-01T10:41:31;11.52;;;3.78;;
76373;SDS011;65197;50.164;8.012;2023-02-01T10:43:59;9.52;;;3.65;;
76373;SDS011;65197;50.164;8.012;2023-02-01T10:46:29;12.45;;;4.28;;
76373;SDS011;65197;50.164;8.012;2023-02-01T10:48:55;11.48;;;3.95;;
76373;SDS011;65197;50.164;8.012;2023-02-01T10:51:26;11.80;;;3.70;;
76373;SDS011;65197;50.164;8.012;2023-02-01T10:54:01;11.75;;;3.20;;
76373;SDS011;65197;50.164;8.012;2023-02-01T10:56:34;8.57;;;4.30;;
76373;SDS011;65197;50.164;8.012;2023-02-01T10:59:06;9.80;;;3.85;;
76373;SDS011;65197;50.164;8.012;2023-02-01T11:01:40;8.77;;;3.60;;
76373;SDS011;65197;50.164;8.012;2023-02-01T11:04:14;10.23;;;3.20;;
76373;SDS011;65197;50.164;8.012;2023-02-01T11:06:49;6.18;;;2.83;;
76373;SDS011;65197;50.164;8.012;2023-02-01T11:09:18;7.95;;;3.20;;
76373;SDS011;65197;50.164;8.012;2023-02-01T11:14:15;11.02;;;3.80;;
76373;SDS011;65197;50.164;8.012;2023-02-01T11:16:49;6.15;;;3.67;;
76373;SDS011;65197;50.164;8.012;2023-02-01T11:19:18;11.00;;;2.95;;
76373;SDS011;65197;50.164;8.012;2023-02-01T11:21:44;14.35;;;4.00;;
76373;SDS011;65197;50.164;8.012;2023-02-01T11:24:24;10.65;;;3.10;;
76373;SDS011;65197;50.164;8.012;2023-02-01T11:26:55;10.80;;;4.07;;
76373;SDS011;65197;50.164;8.012;2023-02-01T11:29:22;5.90;;;2.53;;
76373;SDS011;65197;50.164;8.012;2023-02-01T11:31:54;6.13;;;3.10;;
76373;SDS011;65197;50.164;8.012;2023-02-01T11:34:24;10.55;;;3.17;;
76373;SDS011;65197;50.164;8.012;2023-02-01T11:36:53;10.00;;;2.97;;
76373;SDS011;65197;50.164;8.012;2023-02-01T11:39:30;14.52;;;3.33;;
76373;SDS011;65197;50.164;8.012;2023-02-01T11:42:02;9.70;;;3.67;;
76373;SDS011;65197;50.164;8.012;2023-02-01T11:44:40;13.07;;;3.30;;
76373;SDS011;65197;50.164;8.012;2023-02-01T11:47:24;9.27;;;3.15;;
76373;SDS011;65197;50.164;8.012;2023-02-01T11:49:55;9.80;;;2.95;;
76373;SDS011;65197;50.164;8.012;2023-02-01T11:55:17;7.68;;;3.10;;
76373;SDS011;65197;50.164;8.012;2023-02-01T11:58:02;9.75;;;3.20;;
76373;SDS011;65197;50.164;8.012;2023-02-01T12:00:59;10.40;;;3.17;;
76373;SDS011;65197;50.164;8.012;2023-02-01T12:03:52;11.40;;;2.97;;
76373;SDS011;65197;50.164;8.012;2023-02-01T12:06:57;9.82;;;3.30;;
76373;SDS011;65197;50.164;8.012;2023-02-01T12:12:07;15.77;;;3.05;;
76373;SDS011;65197;50.164;8.012;2023-02-01T12:14:47;8.20;;;2.42;;
76373;SDS011;65197;50.164;8.012;2023-02-01T12:22:42;10.32;;;3.45;;
76373;SDS011;65197;50.164;8.012;2023-02-01T12:25:44;8.73;;;2.55;;
76373;SDS011;65197;50.164;8.012;2023-02-01T12:38:31;12.95;;;3.55;;
76373;SDS011;65197;50.164;8.012;2023-02-01T12:43:38;12.02;;;3.08;;
76373;SDS011;65197;50.164;8.012;2023-02-01T12:51:29;12.02;;;3.35;;
76373;SDS011;65197;50.164;8.012;2023-02-01T12:54:06;7.57;;;2.35;;
76373;SDS011;65197;50.164;8.012;2023-02-01T12:56:41;10.25;;;2.70;;
76373;SDS011;65197;50.164;8.012;2023-02-01T12:59:20;7.43;;;2.65;;
76373;SDS011;65197;50.164;8.012;2023-02-01T13:02:01;16.38;;;2.97;;
76373;SDS011;65197;50.164;8.012;2023-02-01T13:07:38;8.40;;;3.58;;
76373;SDS011;65197;50.164;8.012;2023-02-01T13:10:13;9.38;;;3.00;;
76373;SDS011;65197;50.164;8.012;2023-02-01T13:15:33;11.40;;;3.30;;
76373;SDS011;65197;50.164;8.012;2023-02-01T13:18:05;13.77;;;3.25;;
76373;SDS011;65197;50.164;8.012;2023-02-01T13:20:40;7.03;;;2.20;;
76373;SDS011;65197;50.164;8.012;2023-02-01T13:23:27;8.70;;;2.55;;
76373;SDS011;65197;50.164;8.012;2023-02-01T13:25:55;10.60;;;3.22;;
76373;SDS011;65197;50.164;8.012;2023-02-01T13:28:28;8.05;;;2.17;;
76373;SDS011;65197;50.164;8.012;2023-02-01T13:31:03;7.15;;;2.30;;
76373;SDS011;65197;50.164;8.012;2023-02-01T13:33:54;10.40;;;2.60;;
76373;SDS011;65197;50.164;8.012;2023-02-01T13:42:25;16.08;;;3.20;;
76373;SDS011;65197;50.164;8.012;2023-02-01T13:47:30;10.57;;;2.92;;
76373;SDS011;65197;50.164;8.012;2023-02-01T13:50:01;13.15;;;3.13;;
76373;SDS011;65197;50.164;8.012;2023-02-01T13:52:38;10.02;;;2.78;;
76373;SDS011;65197;50.164;8.012;2023-02-01T13:57:38;11.07;;;2.55;;
76373;SDS011;65197;50.164;8.012;2023-02-01T14:10:55;7.45;;;2.20;;
76373;SDS011;65197;50.164;8.012;2023-02-01T14:13:31;10.00;;;2.65;;
76373;SDS011;65197;50.164;8.012;2023-02-01T14:24:02;7.97;;;2.78;;
76373;SDS011;65197;50.164;8.012;2023-02-01T14:29:12;7.68;;;2.33;;
76373;SDS011;65197;50.164;8.012;2023-02-01T14:34:18;7.35;;;2.75;;
76373;SDS011;65197;50.164;8.012;2023-02-01T14:39:31;15.27;;;4.55;;
76373;SDS011;65197;50.164;8.012;2023-02-01T14:42:05;9.77;;;2.92;;
76373;SDS011;65197;50.164;8.012;2023-02-01T14:44:43;10.45;;;2.83;;
76373;SDS011;65197;50.164;8.012;2023-02-01T14:47:10;10.73;;;2.80;;
76373;SDS011;65197;50.164;8.012;2023-02-01T14:52:37;8.35;;;3.03;;
76373;SDS011;65197;50.164;8.012;2023-02-01T14:58:27;10.38;;;2.28;;
76373;SDS011;65197;50.164;8.012;2023-02-01T15:06:43;10.40;;;2.60;;
76373;SDS011;65197;50.164;8.012;2023-02-01T15:09:16;8.88;;;3.90;;
76373;SDS011;65197;50.164;8.012;2023-02-01T15:14:43;7.65;;;1.92;;
76373;SDS011;65197;50.164;8.012;2023-02-01T15:19:52;11.38;;;2.90;;
76373;SDS011;65197;50.164;8.012;2023-02-01T15:22:37;18.75;;;8.35;;
76373;SDS011;65197;50.164;8.012;2023-02-01T15:25:03;14.40;;;4.05;;
76373;SDS011;65197;50.164;8.012;2023-02-01T15:27:29;11.80;;;4.50;;
76373;SDS011;65197;50.164;8.012;2023-02-01T15:30:06;9.52;;;2.50;;
76373;SDS011;65197;50.164;8.012;2023-02-01T15:32:35;5.22;;;2.47;;
76373;SDS011;65197;50.164;8.012;2023-02-01T15:35:03;10.52;;;4.72;;
76373;SDS011;65197;50.164;8.012;2023-02-01T15:37:30;10.95;;;3.35;;
76373;SDS011;65197;50.164;8.012;2023-02-01T15:42:34;8.32;;;2.15;;
76373;SDS011;65197;50.164;8.012;2023-02-01T15:45:00;7.53;;;2.40;;
76373;SDS011;65197;50.164;8.012;2023-02-01T15:47:27;10.38;;;2.55;;
76373;SDS011;65197;50.164;8.012;2023-02-01T15:49:56;7.65;;;3.08;;
76373;SDS011;65197;50.164;8.012;2023-02-01T15:52:25;7.68;;;2.90;;
76373;SDS011;65197;50.164;8.012;2023-02-01T15:55:00;9.25;;;2.10;;
76373;SDS011;65197;50.164;8.012;2023-02-01T15:57:30;8.80;;;2.63;;
76373;SDS011;65197;50.164;8.012;2023-02-01T15:59:59;17.23;;;5.13;;
76373;SDS011;65197;50.164;8.012;2023-02-01T16:02:33;16.98;;;5.05;;
76373;SDS011;65197;50.164;8.012;2023-02-01T16:04:59;12.43;;;5.22;;
76373;SDS011;65197;50.164;8.012;2023-02-01T16:07:28;5.15;;;2.60;;
76373;SDS011;65197;50.164;8.012;2023-02-01T16:09:56;35.25;;;16.98;;
76373;SDS011;65197;50.164;8.012;2023-02-01T16:14:49;6.68;;;2.40;;
76373;SDS011;65197;50.164;8.012;2023-02-01T16:17:14;16.77;;;7.78;;
76373;SDS011;65197;50.164;8.012;2023-02-01T16:19:40;11.80;;;4.32;;
76373;SDS011;65197;50.164;8.012;2023-02-01T16:22:05;10.50;;;2.83;;
76373;SDS011;65197;50.164;8.012;2023-02-01T16:24:31;14.63;;;3.88;;
76373;SDS011;65197;50.164;8.012;2023-02-01T16:26:57;12.88;;;4.70;;
76373;SDS011;65197;50.164;8.012;2023-02-01T16:29:22;7.60;;;2.65;;
76373;SDS011;65197;50.164;8.012;2023-02-01T16:31:48;14.30;;;5.75;;
76373;SDS011;65197;50.164;8.012;2023-02-01T16:34:15;8.75;;;3.15;;
76373;SDS011;65197;50.164;8.012;2023-02-01T16:36:46;11.77;;;2.65;;
76373;SDS011;65197;50.164;8.012;2023-02-01T16:39:16;12.23;;;6.25;;
76373;SDS011;65197;50.164;8.012;2023-02-01T16:41:42;9.45;;;2.80;;
76373;SDS011;65197;50.164;8.012;2023-02-01T16:44:07;6.57;;;2.55;;
76373;SDS011;65197;50.164;8.012;2023-02-01T16:46:35;7.80;;;2.25;;
76373;SDS011;65197;50.164;8.012;2023-02-01T16:49:17;13.73;;;3.97;;
76373;SDS011;65197;50.164;8.012;2023-02-01T16:51:45;32.35;;;14.10;;
76373;SDS011;65197;50.164;8.012;2023-02-01T16:54:12;10.65;;;3.17;;
76373;SDS011;65197;50.164;8.012;2023-02-01T16:56:37;9.07;;;2.15;;
76373;SDS011;65197;50.164;8.012;2023-02-01T17:01:33;8.27;;;4.03;;
76373;SDS011;65197;50.164;8.012;2023-02-01T17:03:59;7.93;;;3.63;;
76373;SDS011;65197;50.164;8.012;2023-02-01T17:06:25;20.00;;;7.97;;
76373;SDS011;65197;50.164;8.012;2023-02-01T17:08:52;33.42;;;15.75;;
76373;SDS011;65197;50.164;8.012;2023-02-01T17:11:19;7.72;;;2.38;;
76373;SDS011;65197;50.164;8.012;2023-02-01T17:13:45;15.63;;;5.53;;
76373;SDS011;65197;50.164;8.012;2023-02-01T17:18:43;10.40;;;4.85;;
76373;SDS011;65197;50.164;8.012;2023-02-01T17:21:09;9.60;;;2.25;;
76373;SDS011;65197;50.164;8.012;2023-02-01T17:23:35;9.32;;;2.85;;
76373;SDS011;65197;50.164;8.012;2023-02-01T17:26:01;13.02;;;2.50;;
76373;SDS011;65197;50.164;8.012;2023-02-01T17:28:27;8.68;;;2.53;;